world map with ITM marked

ITM - Airport

This information may not be accurate or current and is not valid for navigation or flight planning. No warranty of fitness for any purpose is made or implied.

flag of Hyogoflag of Japan

Donate via PayPal

Additional information is available on the NEW Great Circle Mapper

Location
City:  Osaka, Hyogo, Japan
Name:Itami (Osaka International)
ICAO / IATA:RJOO / ITM

Details
Type:Airport (Aerodrome, Airfield)
Use:Public/Civil
Latitude:34°47'08"N (34.785528)
Longitude:135°26'18"E (135.438222)
Datum:WGS 1984
Elevation:50 ft (15 m)
Runways:2
Longest:9840 × 200 ft (2999 × 61 m)

Time
Timezone:UTC+9 (DST+11)
Local Time:

Weather
METAR:RJOO  041100Z 02005KT 340V050 CAVOK 08/02 Q1021 RMK A3016
TAF:RJOO  041107Z 0412/0518 32006KT 9999 FEW025

Related Locations
Nearby:
Farthest:SUEX: 12286 mi / 19772 km
Montevideo East [Montevideo East UIR], UY

Find:

   beyond  
but within

Other Information
Maps:
Sources:

  


 


Great Circle Mapper   Great Circle Mapper
Great Circle Mapper FAQ   Great Circle Mapper FAQ
  Karl's Home Page
KLSē   KLSē Home
   GC on Facebook
Airlines of the World   Airlines of the World
Donate via PayPal


Copyright © 2004-2020, Karl L. Swartz. All rights reserved.
All trademarks mentioned herein belong to their respective owners.

Please see credits for attribution and copyright information.

Karl Swartz <karl@kls2.com>
  Powered by FreeBSD
Valid HTML 4.01!
Labeled with ICRA
hCard Microformat
Geo Microformat